createdAt,value
2023-01-08T00:00:05.659Z,8.60
2023-01-08T00:00:16.451Z,8.30
2023-01-08T00:00:27.560Z,8.70
2023-01-08T00:00:38.562Z,8.50
2023-01-08T00:00:49.323Z,8.20
2023-01-08T00:01:00.401Z,8.40
2023-01-08T00:01:11.399Z,8.50
2023-01-08T00:01:22.147Z,8.50
2023-01-08T00:01:33.183Z,8.60
2023-01-08T00:01:44.149Z,8.50
2023-01-08T00:01:54.929Z,8.70
2023-01-08T00:02:05.960Z,8.80
2023-01-08T00:02:16.926Z,9.00
2023-01-08T00:02:27.712Z,8.70
2023-01-08T00:02:38.792Z,8.50
2023-01-08T00:02:49.888Z,8.50
2023-01-08T00:03:00.950Z,8.40
2023-01-08T00:03:11.561Z,8.50
2023-01-08T00:03:22.208Z,8.90
2023-01-08T00:03:33.114Z,8.70
2023-01-08T00:03:43.751Z,8.50
2023-01-08T00:03:54.331Z,8.50
2023-01-08T00:04:05.225Z,8.40
2023-01-08T00:04:16.249Z,9.60
2023-01-08T00:04:27.190Z,11.40
2023-01-08T00:04:37.966Z,11.50
2023-01-08T00:04:49.012Z,10.70
2023-01-08T00:04:59.982Z,9.20
2023-01-08T00:05:10.742Z,9.70
2023-01-08T00:05:21.797Z,9.30
2023-01-08T00:05:32.764Z,10.00
2023-01-08T00:05:43.566Z,10.10
2023-01-08T00:05:54.626Z,9.50
2023-01-08T00:06:05.580Z,9.40
2023-01-08T00:06:16.349Z,10.00
2023-01-08T00:06:27.389Z,9.90
2023-01-08T00:06:38.360Z,9.90
2023-01-08T00:06:49.127Z,8.50
2023-01-08T00:07:00.169Z,8.60
2023-01-08T00:07:11.137Z,8.90
2023-01-08T00:07:21.904Z,8.70
2023-01-08T00:07:32.948Z,8.10
2023-01-08T00:07:43.919Z,7.60
2023-01-08T00:07:54.683Z,8.30
2023-01-08T00:08:05.739Z,8.70
2023-01-08T00:08:16.696Z,8.80
2023-01-08T00:08:27.473Z,8.10
2023-01-08T00:08:38.516Z,7.90
2023-01-08T00:08:49.494Z,8.40
2023-01-08T00:09:00.256Z,9.60
2023-01-08T00:09:11.302Z,9.80
2023-01-08T00:09:22.280Z,9.60
2023-01-08T00:09:33.040Z,8.80
2023-01-08T00:09:44.086Z,9.80
2023-01-08T00:09:55.052Z,9.00
2023-01-08T00:10:05.815Z,8.80
2023-01-08T00:10:16.860Z,8.60
2023-01-08T00:10:27.843Z,9.40
2023-01-08T00:10:38.602Z,9.30
2023-01-08T00:10:49.646Z,8.90
2023-01-08T00:11:00.620Z,9.70
2023-01-08T00:11:11.396Z,9.50
2023-01-08T00:11:22.427Z,9.60
2023-01-08T00:11:33.402Z,9.60
2023-01-08T00:11:44.162Z,9.50
2023-01-08T00:11:55.208Z,9.30
2023-01-08T00:12:06.177Z,8.90
2023-01-08T00:12:16.938Z,8.60
2023-01-08T00:12:27.991Z,8.50
2023-01-08T00:12:38.950Z,8.50
2023-01-08T00:12:49.719Z,8.50
2023-01-08T00:13:00.765Z,8.50
2023-01-08T00:13:11.735Z,8.20
2023-01-08T00:13:22.497Z,9.00
2023-01-08T00:13:33.550Z,9.30
2023-01-08T00:13:44.517Z,9.00
2023-01-08T00:13:55.281Z,8.40
2023-01-08T00:14:06.337Z,8.70
2023-01-08T00:14:17.298Z,9.30
2023-01-08T00:14:28.065Z,9.00
2023-01-08T00:14:39.113Z,8.60
2023-01-08T00:14:50.090Z,8.10
2023-01-08T00:15:00.855Z,8.40
2023-01-08T00:15:11.905Z,8.10
2023-01-08T00:15:22.866Z,9.20
2023-01-08T00:15:33.649Z,8.80
2023-01-08T00:15:44.691Z,9.00
2023-01-08T00:15:55.692Z,8.40
2023-01-08T00:16:06.542Z,9.00
2023-01-08T00:16:17.092Z,8.40
2023-01-08T00:16:28.039Z,8.70
2023-01-08T00:16:38.885Z,8.60
2023-01-08T00:16:49.402Z,8.50
2023-01-08T00:17:00.481Z,7.90
2023-01-08T00:17:11.228Z,9.00
2023-01-08T00:17:22.273Z,9.00
2023-01-08T00:17:33.244Z,8.90
2023-01-08T00:17:44.008Z,8.30
2023-01-08T00:17:55.054Z,8.50
2023-01-08T00:18:06.973Z,8.80
2023-01-08T00:18:17.157Z,8.50
2023-01-08T00:18:28.194Z,7.70
2023-01-08T00:18:39.184Z,8.30
2023-01-08T00:18:49.949Z,8.60
2023-01-08T00:19:00.992Z,8.70
2023-01-08T00:19:11.968Z,8.20
2023-01-08T00:19:22.736Z,8.00
2023-01-08T00:19:33.789Z,8.10
2023-01-08T00:19:44.758Z,8.00
2023-01-08T00:19:55.524Z,8.20
2023-01-08T00:20:06.582Z,8.70
2023-01-08T00:20:17.541Z,10.20
2023-01-08T00:20:28.307Z,9.40
2023-01-08T00:20:39.353Z,9.30
2023-01-08T00:20:50.313Z,7.90
2023-01-08T00:21:01.085Z,8.10
2023-01-08T00:21:12.144Z,8.00
2023-01-08T00:21:23.089Z,8.30
2023-01-08T00:21:33.858Z,7.80
2023-01-08T00:21:44.902Z,9.00
2023-01-08T00:21:55.888Z,8.60
2023-01-08T00:22:06.634Z,7.70
2023-01-08T00:22:17.681Z,7.60
2023-01-08T00:22:28.688Z,8.60
2023-01-08T00:22:39.417Z,8.60
2023-01-08T00:22:50.476Z,8.00
2023-01-08T00:23:01.439Z,8.10
2023-01-08T00:23:12.208Z,8.30
2023-01-08T00:23:23.255Z,8.00
2023-01-08T00:23:34.224Z,8.20
2023-01-08T00:23:44.996Z,9.00
2023-01-08T00:23:56.052Z,8.90
2023-01-08T00:24:07.012Z,7.80
2023-01-08T00:24:17.772Z,9.80
2023-01-08T00:24:28.826Z,10.00
2023-01-08T00:24:39.795Z,10.40
2023-01-08T00:24:50.567Z,8.90
2023-01-08T00:25:01.607Z,8.60
2023-01-08T00:25:12.578Z,7.70
2023-01-08T00:25:23.341Z,7.70
2023-01-08T00:25:34.383Z,8.10
2023-01-08T00:25:45.354Z,8.60
2023-01-08T00:25:56.138Z,9.00
2023-01-08T00:26:07.172Z,9.30
2023-01-08T00:26:18.142Z,8.50
2023-01-08T00:26:28.900Z,8.10
2023-01-08T00:26:39.966Z,7.80
2023-01-08T00:26:50.916Z,7.20
2023-01-08T00:27:01.691Z,7.80
2023-01-08T00:27:12.730Z,8.80
2023-01-08T00:27:23.693Z,9.50
2023-01-08T00:27:34.462Z,10.10
2023-01-08T00:27:45.507Z,8.30
2023-01-08T00:27:56.476Z,8.60
2023-01-08T00:28:07.238Z,8.00
2023-01-08T00:28:18.296Z,8.80
2023-01-08T00:28:29.253Z,9.10
2023-01-08T00:28:40.025Z,10.10
2023-01-08T00:28:51.080Z,10.00
2023-01-08T00:29:02.042Z,9.10
2023-01-08T00:29:12.815Z,10.00
2023-01-08T00:29:23.885Z,9.80
2023-01-08T00:29:34.851Z,8.80
2023-01-08T00:29:45.623Z,8.60
2023-01-08T00:29:56.663Z,8.10
2023-01-08T00:30:07.627Z,7.60
2023-01-08T00:30:18.400Z,7.70
2023-01-08T00:30:29.474Z,7.90
2023-01-08T00:30:40.462Z,8.30
2023-01-08T00:30:51.268Z,8.50
2023-01-08T00:31:03.640Z,7.90
2023-01-08T00:31:12.721Z,7.80
2023-01-08T00:31:23.466Z,7.30
2023-01-08T00:31:34.501Z,7.40
2023-01-08T00:31:45.486Z,8.00
2023-01-08T00:31:56.224Z,8.00
2023-01-08T00:32:07.287Z,7.60
2023-01-08T00:32:18.253Z,7.90
2023-01-08T00:32:29.019Z,8.10
2023-01-08T00:32:40.063Z,7.70
2023-01-08T00:32:51.019Z,7.00
2023-01-08T00:33:01.787Z,7.50
2023-01-08T00:33:12.951Z,8.40
2023-01-08T00:33:23.863Z,9.20
2023-01-08T00:33:34.611Z,9.90
2023-01-08T00:33:45.667Z,9.20
2023-01-08T00:33:56.641Z,8.00
2023-01-08T00:34:07.399Z,7.60
2023-01-08T00:34:18.447Z,8.10
2023-01-08T00:34:29.427Z,8.90
2023-01-08T00:34:40.189Z,8.60
2023-01-08T00:34:51.244Z,7.80
2023-01-08T00:35:02.232Z,6.90
2023-01-08T00:35:12.991Z,7.30
2023-01-08T00:35:24.040Z,7.70
2023-01-08T00:35:35.001Z,8.10
2023-01-08T00:35:45.772Z,7.70
2023-01-08T00:35:56.814Z,7.50
2023-01-08T00:36:07.785Z,7.70
2023-01-08T00:36:18.560Z,8.00
2023-01-08T00:36:29.593Z,8.10
2023-01-08T00:36:40.561Z,7.60
2023-01-08T00:36:51.326Z,8.00
2023-01-08T00:37:02.377Z,7.70
2023-01-08T00:37:13.347Z,8.70
2023-01-08T00:37:24.103Z,8.20
2023-01-08T00:37:35.163Z,9.10
2023-01-08T00:37:46.127Z,8.00
2023-01-08T00:37:56.915Z,8.10
2023-01-08T00:38:07.947Z,7.90
2023-01-08T00:38:18.923Z,7.50
2023-01-08T00:38:29.672Z,7.70
2023-01-08T00:38:40.732Z,7.90
2023-01-08T00:38:51.695Z,8.50
2023-01-08T00:39:02.475Z,8.40
2023-01-08T00:39:13.514Z,8.70
2023-01-08T00:39:24.480Z,8.70
2023-01-08T00:39:35.264Z,8.30
2023-01-08T00:39:46.302Z,9.60
2023-01-08T00:39:57.279Z,9.40
2023-01-08T00:40:08.068Z,9.00
2023-01-08T00:40:19.120Z,8.00
2023-01-08T00:40:30.122Z,7.90
2023-01-08T00:40:40.901Z,8.00
2023-01-08T00:40:51.947Z,8.50
2023-01-08T00:41:02.912Z,8.40
2023-01-08T00:41:13.714Z,8.10
2023-01-08T00:41:24.722Z,7.70
2023-01-08T00:41:35.706Z,7.60
2023-01-08T00:41:46.489Z,7.10
2023-01-08T00:41:57.515Z,7.40
2023-01-08T00:42:08.482Z,7.20
2023-01-08T00:42:19.250Z,7.70
2023-01-08T00:42:30.312Z,6.90
2023-01-08T00:42:41.283Z,9.00
2023-01-08T00:42:52.052Z,9.30
2023-01-08T00:43:03.094Z,8.80
2023-01-08T00:43:14.062Z,8.30
2023-01-08T00:43:24.830Z,8.10
2023-01-08T00:43:35.883Z,8.00
2023-01-08T00:43:46.850Z,7.50
2023-01-08T00:43:57.617Z,8.30
2023-01-08T00:44:08.672Z,9.20
2023-01-08T00:44:19.643Z,8.70
2023-01-08T00:44:30.432Z,7.70
2023-01-08T00:44:41.491Z,7.70
2023-01-08T00:44:52.457Z,8.90
2023-01-08T00:45:03.229Z,8.50
2023-01-08T00:45:14.273Z,8.50
2023-01-08T00:45:25.238Z,6.90
2023-01-08T00:45:36.114Z,6.90
2023-01-08T00:45:46.644Z,7.20
2023-01-08T00:45:57.641Z,7.90
2023-01-08T00:46:08.449Z,8.00
2023-01-08T00:46:18.917Z,8.40
2023-01-08T00:46:29.873Z,8.50
2023-01-08T00:46:40.634Z,7.90
2023-01-08T00:46:51.687Z,7.80
2023-01-08T00:47:02.649Z,7.60
2023-01-08T00:47:13.425Z,8.00
2023-01-08T00:47:24.467Z,8.00
2023-01-08T00:47:35.452Z,8.00
2023-01-08T00:47:46.223Z,8.10
2023-01-08T00:47:57.277Z,7.30
2023-01-08T00:48:08.239Z,7.40
2023-01-08T00:48:19.129Z,7.70
2023-01-08T00:48:29.569Z,8.50
2023-01-08T00:48:40.543Z,8.70
2023-01-08T00:48:51.305Z,8.70
2023-01-08T00:49:02.355Z,7.70
2023-01-08T00:49:13.334Z,7.00
2023-01-08T00:49:24.115Z,6.20
2023-01-08T00:49:35.158Z,6.00
2023-01-08T00:49:46.134Z,6.50
2023-01-08T00:49:56.899Z,6.70
2023-01-08T00:50:07.965Z,7.00
2023-01-08T00:50:18.936Z,7.20
2023-01-08T00:50:29.699Z,6.40
2023-01-08T00:50:40.752Z,5.90
2023-01-08T00:50:51.729Z,5.70
2023-01-08T00:51:02.487Z,6.20
2023-01-08T00:51:13.528Z,6.20
2023-01-08T00:51:24.504Z,7.40
2023-01-08T00:51:35.267Z,7.70
2023-01-08T00:51:46.312Z,6.80
2023-01-08T00:51:57.295Z,7.00
2023-01-08T00:52:08.052Z,6.80
2023-01-08T00:52:19.103Z,7.00
2023-01-08T00:52:30.066Z,6.50
2023-01-08T00:52:40.832Z,6.40
2023-01-08T00:52:51.875Z,6.50
2023-01-08T00:53:02.849Z,6.40
2023-01-08T00:53:13.607Z,5.50
2023-01-08T00:53:24.674Z,6.20
2023-01-08T00:53:35.621Z,6.20
2023-01-08T00:53:46.406Z,7.70
2023-01-08T00:53:57.440Z,7.70
2023-01-08T00:54:08.413Z,8.30
2023-01-08T00:54:19.189Z,7.80
2023-01-08T00:54:30.230Z,6.80
2023-01-08T00:54:41.204Z,6.70
2023-01-08T00:54:51.978Z,6.60
2023-01-08T00:55:03.040Z,7.40
2023-01-08T00:55:13.996Z,6.90
2023-01-08T00:55:24.750Z,7.00
2023-01-08T00:55:35.807Z,6.60
2023-01-08T00:55:46.765Z,6.90
2023-01-08T00:55:57.536Z,6.20
2023-01-08T00:56:08.594Z,6.70
2023-01-08T00:56:19.555Z,7.60
2023-01-08T00:56:30.328Z,7.40
2023-01-08T00:56:41.378Z,8.20
2023-01-08T00:56:52.334Z,8.10
2023-01-08T00:57:03.103Z,6.80
2023-01-08T00:57:14.148Z,7.00
2023-01-08T00:57:25.114Z,6.80
2023-01-08T00:57:35.876Z,7.30
2023-01-08T00:57:46.922Z,8.00
2023-01-08T00:57:57.890Z,7.40
2023-01-08T00:58:08.656Z,6.90
2023-01-08T00:58:19.704Z,6.50
2023-01-08T00:58:30.681Z,7.30
2023-01-08T00:58:41.457Z,6.60
2023-01-08T00:58:52.501Z,6.80
2023-01-08T00:59:03.472Z,5.90
2023-01-08T00:59:14.233Z,6.60
2023-01-08T00:59:25.288Z,5.80
2023-01-08T00:59:36.284Z,5.90
2023-01-08T00:59:47.071Z,5.50
2023-01-08T00:59:58.125Z,5.70
2023-01-08T01:00:09.096Z,5.90
2023-01-08T01:00:19.882Z,6.00
2023-01-08T01:00:30.913Z,8.40
2023-01-08T01:00:41.881Z,8.80
2023-01-08T01:00:52.772Z,8.70
2023-01-08T01:01:03.289Z,6.50
2023-01-08T01:01:14.470Z,5.70
2023-01-08T01:01:25.536Z,5.90
2023-01-08T01:01:36.191Z,6.40
2023-01-08T01:01:46.745Z,6.30
2023-01-08T01:01:57.732Z,6.10
2023-01-08T01:02:08.349Z,5.70
2023-01-08T01:02:18.995Z,6.20
2023-01-08T01:02:29.770Z,7.20
2023-01-08T01:02:40.813Z,8.00
2023-01-08T01:02:51.789Z,8.30
2023-01-08T01:03:02.551Z,7.90
2023-01-08T01:03:13.594Z,7.30
2023-01-08T01:03:24.683Z,8.00
2023-01-08T01:03:35.380Z,7.90
2023-01-08T01:03:46.460Z,7.20
2023-01-08T01:03:57.479Z,7.10
2023-01-08T01:04:08.311Z,7.60
2023-01-08T01:04:18.861Z,7.60
2023-01-08T01:04:29.968Z,7.90
2023-01-08T01:04:40.682Z,6.90
2023-01-08T01:04:51.734Z,7.50
2023-01-08T01:05:02.719Z,8.40
2023-01-08T01:05:13.477Z,8.20
2023-01-08T01:05:24.532Z,7.70
2023-01-08T01:05:35.529Z,7.60
2023-01-08T01:05:46.258Z,8.60
2023-01-08T01:05:57.308Z,10.20
2023-01-08T01:06:08.283Z,10.30
2023-01-08T01:06:19.045Z,9.50
2023-01-08T01:06:30.091Z,9.10
2023-01-08T01:06:41.066Z,8.90
2023-01-08T01:06:51.822Z,8.70
2023-01-08T01:07:02.879Z,8.60
2023-01-08T01:07:13.835Z,8.50
2023-01-08T01:07:24.608Z,8.50
2023-01-08T01:07:35.666Z,8.10
2023-01-08T01:07:46.633Z,7.80
2023-01-08T01:07:57.390Z,7.60
2023-01-08T01:08:08.449Z,7.30
2023-01-08T01:08:19.400Z,7.30
2023-01-08T01:08:30.168Z,7.20
2023-01-08T01:08:41.259Z,6.60
2023-01-08T01:08:52.201Z,7.10
2023-01-08T01:09:02.949Z,6.90
2023-01-08T01:09:14.009Z,7.20
2023-01-08T01:09:24.976Z,7.30
2023-01-08T01:09:35.751Z,7.40
2023-01-08T01:09:46.800Z,7.50
2023-01-08T01:09:57.762Z,8.00
2023-01-08T01:10:08.530Z,9.00
2023-01-08T01:10:19.596Z,10.40
2023-01-08T01:10:30.548Z,9.60
2023-01-08T01:10:41.315Z,8.10
2023-01-08T01:10:52.367Z,6.90
2023-01-08T01:11:03.327Z,7.60
2023-01-08T01:11:14.108Z,8.10
2023-01-08T01:11:25.180Z,8.40
2023-01-08T01:11:36.147Z,8.40
2023-01-08T01:11:46.920Z,8.90
2023-01-08T01:11:57.975Z,8.40
2023-01-08T01:12:08.939Z,8.40
2023-01-08T01:12:19.707Z,8.60
2023-01-08T01:12:30.997Z,9.00
2023-01-08T01:12:41.428Z,8.30
2023-01-08T01:12:52.185Z,8.10
2023-01-08T01:13:03.226Z,7.10
2023-01-08T01:13:14.207Z,6.80
2023-01-08T01:13:24.969Z,7.00
2023-01-08T01:13:36.015Z,7.20
2023-01-08T01:13:46.989Z,7.50
2023-01-08T01:13:57.769Z,7.40
2023-01-08T01:14:08.797Z,7.70
2023-01-08T01:14:19.782Z,7.60
2023-01-08T01:14:30.531Z,8.30
2023-01-08T01:14:41.587Z,9.00
2023-01-08T01:14:52.542Z,8.60
2023-01-08T01:15:03.306Z,7.10
2023-01-08T01:15:14.354Z,7.20
2023-01-08T01:15:25.322Z,8.60
2023-01-08T01:15:36.119Z,8.50
2023-01-08T01:15:47.150Z,9.10
2023-01-08T01:15:58.106Z,7.70
2023-01-08T01:16:08.878Z,8.50
2023-01-08T01:16:19.987Z,9.30
2023-01-08T01:16:30.946Z,9.30
2023-01-08T01:16:41.721Z,8.70
2023-01-08T01:16:52.317Z,8.20
2023-01-08T01:17:02.824Z,8.00
2023-01-08T01:17:13.525Z,7.50
2023-01-08T01:17:24.668Z,7.80
2023-01-08T01:17:35.629Z,7.60
2023-01-08T01:17:46.428Z,8.80
2023-01-08T01:17:57.462Z,9.20
2023-01-08T01:18:08.425Z,9.40
2023-01-08T01:18:19.183Z,9.00
2023-01-08T01:18:30.254Z,8.50
2023-01-08T01:18:41.230Z,8.10
2023-01-08T01:18:51.971Z,8.10
2023-01-08T01:19:03.036Z,8.80
2023-01-08T01:19:14.011Z,10.20
2023-01-08T01:19:24.767Z,10.60
2023-01-08T01:19:35.835Z,9.40
2023-01-08T01:19:46.796Z,8.50
2023-01-08T01:19:57.575Z,8.20
2023-01-08T01:20:08.622Z,8.70
2023-01-08T01:20:19.587Z,9.20
2023-01-08T01:20:30.359Z,8.80
2023-01-08T01:20:41.398Z,8.00
2023-01-08T01:20:52.393Z,8.50
2023-01-08T01:21:03.156Z,8.30
2023-01-08T01:21:14.253Z,8.30
2023-01-08T01:21:25.171Z,8.90
2023-01-08T01:21:35.943Z,9.60
2023-01-08T01:21:46.982Z,9.70
2023-01-08T01:21:57.955Z,8.50
2023-01-08T01:22:08.726Z,7.30
2023-01-08T01:22:19.775Z,6.50
2023-01-08T01:22:30.738Z,6.70
2023-01-08T01:22:41.502Z,6.20
2023-01-08T01:22:52.563Z,6.40
2023-01-08T01:23:03.529Z,6.90
2023-01-08T01:23:14.311Z,7.40
2023-01-08T01:23:25.357Z,6.80
2023-01-08T01:23:36.305Z,6.70
2023-01-08T01:23:47.074Z,6.50
2023-01-08T01:23:58.139Z,7.00
2023-01-08T01:24:09.109Z,7.20
2023-01-08T01:24:19.885Z,7.10
2023-01-08T01:24:30.925Z,6.80
2023-01-08T01:24:41.908Z,6.40
2023-01-08T01:24:52.665Z,5.80
2023-01-08T01:25:03.709Z,6.30
2023-01-08T01:25:14.679Z,6.80
2023-01-08T01:25:25.441Z,6.60
2023-01-08T01:25:36.489Z,7.50
2023-01-08T01:25:47.457Z,8.10
2023-01-08T01:25:58.285Z,7.80
2023-01-08T01:26:08.790Z,7.60
2023-01-08T01:26:19.772Z,7.10
2023-01-08T01:26:30.521Z,6.50
2023-01-08T01:26:41.571Z,7.40
2023-01-08T01:26:52.539Z,7.40
2023-01-08T01:27:03.309Z,7.30
2023-01-08T01:27:14.351Z,6.30
2023-01-08T01:27:25.320Z,6.20
2023-01-08T01:27:36.084Z,6.20
2023-01-08T01:27:47.170Z,6.60
2023-01-08T01:27:58.112Z,6.80
2023-01-08T01:28:08.881Z,7.00
2023-01-08T01:28:19.922Z,6.90
2023-01-08T01:28:30.887Z,6.80
2023-01-08T01:28:41.672Z,6.10
2023-01-08T01:28:52.709Z,5.70
2023-01-08T01:29:03.674Z,5.60
2023-01-08T01:29:14.454Z,5.90
2023-01-08T01:29:25.506Z,6.50
2023-01-08T01:29:36.464Z,6.10
2023-01-08T01:29:47.237Z,6.30
2023-01-08T01:29:58.284Z,6.40
2023-01-08T01:30:09.268Z,6.20
2023-01-08T01:30:20.024Z,5.70
2023-01-08T01:30:31.119Z,5.40
2023-01-08T01:30:42.132Z,5.10
2023-01-08T01:30:52.898Z,5.40
2023-01-08T01:31:04.039Z,5.40
2023-01-08T01:31:15.015Z,5.60
2023-01-08T01:31:25.719Z,5.80
2023-01-08T01:31:36.777Z,6.20
2023-01-08T01:31:47.746Z,5.90
2023-01-08T01:31:58.518Z,6.50
2023-01-08T01:32:09.667Z,6.50
2023-01-08T01:32:20.107Z,5.90
2023-01-08T01:32:30.872Z,5.60
2023-01-08T01:32:41.928Z,5.60
2023-01-08T01:32:52.470Z,5.70
2023-01-08T01:33:03.240Z,5.10
2023-01-08T01:33:14.280Z,4.60
2023-01-08T01:33:25.258Z,4.30
2023-01-08T01:33:36.136Z,4.50
2023-01-08T01:33:46.593Z,4.80
2023-01-08T01:33:57.552Z,5.60
2023-01-08T01:34:08.321Z,5.70
2023-01-08T01:34:19.380Z,6.00
2023-01-08T01:34:30.353Z,6.00
2023-01-08T01:34:41.121Z,6.40
2023-01-08T01:34:52.194Z,6.40
2023-01-08T01:35:03.159Z,7.00
2023-01-08T01:35:13.936Z,7.20
2023-01-08T01:35:24.522Z,7.10
2023-01-08T01:35:35.541Z,8.00
2023-01-08T01:35:46.265Z,8.40
2023-01-08T01:35:57.330Z,8.70
2023-01-08T01:36:08.268Z,8.20
2023-01-08T01:36:19.049Z,9.50
2023-01-08T01:36:30.078Z,10.70
2023-01-08T01:36:41.057Z,12.50
2023-01-08T01:36:51.807Z,12.60
2023-01-08T01:37:02.862Z,12.60
2023-01-08T01:37:13.824Z,12.20
2023-01-08T01:37:24.602Z,12.90
2023-01-08T01:37:35.707Z,13.50
2023-01-08T01:37:46.679Z,15.30
2023-01-08T01:37:57.445Z,19.30
2023-01-08T01:38:08.491Z,21.30
2023-01-08T01:38:19.467Z,21.30
2023-01-08T01:38:30.230Z,21.40
2023-01-08T01:38:41.302Z,21.70
2023-01-08T01:38:52.236Z,22.80
2023-01-08T01:39:03.001Z,23.10
2023-01-08T01:39:14.046Z,23.70
2023-01-08T01:39:25.028Z,23.00
2023-01-08T01:39:35.789Z,22.90
2023-01-08T01:39:46.856Z,21.50
2023-01-08T01:39:58.093Z,21.00
2023-01-08T01:40:08.856Z,21.50
2023-01-08T01:40:19.906Z,19.90
2023-01-08T01:40:30.867Z,18.00
2023-01-08T01:40:41.631Z,15.20
2023-01-08T01:40:52.680Z,12.90
2023-01-08T01:41:03.654Z,10.90
2023-01-08T01:41:14.430Z,10.00
2023-01-08T01:41:25.510Z,9.20
2023-01-08T01:41:36.458Z,8.90
2023-01-08T01:41:47.229Z,8.80
2023-01-08T01:41:58.261Z,8.10
2023-01-08T01:42:09.229Z,8.20
2023-01-08T01:42:19.997Z,8.30
2023-01-08T01:42:31.158Z,7.30
2023-01-08T01:42:41.629Z,6.50
2023-01-08T01:42:52.359Z,6.00
2023-01-08T01:43:03.408Z,6.10
2023-01-08T01:43:14.384Z,6.30
2023-01-08T01:43:25.147Z,6.00
2023-01-08T01:43:36.196Z,5.40
2023-01-08T01:43:47.156Z,5.70
2023-01-08T01:43:57.942Z,6.00
2023-01-08T01:44:08.968Z,5.20
2023-01-08T01:44:19.934Z,5.30
2023-01-08T01:44:30.708Z,5.50
2023-01-08T01:44:41.763Z,5.60
2023-01-08T01:44:52.734Z,5.50
2023-01-08T01:45:03.503Z,5.60
2023-01-08T01:45:14.552Z,5.30
2023-01-08T01:45:25.510Z,4.80
2023-01-08T01:45:36.355Z,4.20
2023-01-08T01:45:47.386Z,4.70
2023-01-08T01:45:58.364Z,4.80
2023-01-08T01:46:09.205Z,4.80
2023-01-08T01:46:19.775Z,5.40
2023-01-08T01:46:30.698Z,5.60
2023-01-08T01:46:41.477Z,5.90
2023-01-08T01:46:52.529Z,5.00
2023-01-08T01:47:03.496Z,4.80
2023-01-08T01:47:14.266Z,4.70
2023-01-08T01:47:25.324Z,5.00
2023-01-08T01:47:36.312Z,4.90
2023-01-08T01:47:47.072Z,5.00
2023-01-08T01:47:58.125Z,5.00
2023-01-08T01:48:09.098Z,5.00
2023-01-08T01:48:19.865Z,5.30
2023-01-08T01:48:30.908Z,5.60
2023-01-08T01:48:41.992Z,5.00
2023-01-08T01:48:52.699Z,5.40
2023-01-08T01:49:03.758Z,6.30
2023-01-08T01:49:14.722Z,6.40
2023-01-08T01:49:25.513Z,5.40
2023-01-08T01:49:36.575Z,4.70
2023-01-08T01:49:47.552Z,4.90
2023-01-08T01:49:58.321Z,5.20
2023-01-08T01:50:09.381Z,5.00
2023-01-08T01:50:20.350Z,4.90
2023-01-08T01:50:31.116Z,4.70
2023-01-08T01:50:42.161Z,4.70
2023-01-08T01:50:53.124Z,4.70
2023-01-08T01:51:03.892Z,4.80
2023-01-08T01:51:14.937Z,4.80
2023-01-08T01:51:25.935Z,4.40
2023-01-08T01:51:36.670Z,4.80
2023-01-08T01:51:47.716Z,5.50
2023-01-08T01:51:58.679Z,6.30
2023-01-08T01:52:09.462Z,5.60
2023-01-08T01:52:20.511Z,4.70
2023-01-08T01:52:31.493Z,4.20
2023-01-08T01:52:42.266Z,5.00
2023-01-08T01:52:53.332Z,4.90
2023-01-08T01:53:04.285Z,5.10
2023-01-08T01:53:15.064Z,4.60
2023-01-08T01:53:26.116Z,5.40
2023-01-08T01:53:37.138Z,5.10
2023-01-08T01:53:47.959Z,4.80
2023-01-08T01:53:58.441Z,4.40
2023-01-08T01:54:09.430Z,4.50
2023-01-08T01:54:20.195Z,4.30
2023-01-08T01:54:31.237Z,3.90
2023-01-08T01:54:42.219Z,4.30
2023-01-08T01:54:52.990Z,4.50
2023-01-08T01:55:04.051Z,5.00
2023-01-08T01:55:15.029Z,5.00
2023-01-08T01:55:25.796Z,5.90
2023-01-08T01:55:36.851Z,6.00
2023-01-08T01:55:47.863Z,5.10
2023-01-08T01:55:58.588Z,5.00
2023-01-08T01:56:09.642Z,5.30
2023-01-08T01:56:20.612Z,5.20
2023-01-08T01:56:31.380Z,5.60
2023-01-08T01:56:42.435Z,5.70
2023-01-08T01:56:53.398Z,5.60
2023-01-08T01:57:04.151Z,4.60
2023-01-08T01:57:15.198Z,4.00
2023-01-08T01:57:26.163Z,4.50
2023-01-08T01:57:36.929Z,4.50
2023-01-08T01:57:47.980Z,4.70
2023-01-08T01:57:58.949Z,5.30
2023-01-08T01:58:09.709Z,5.20
2023-01-08T01:58:20.764Z,5.20
2023-01-08T01:58:31.721Z,5.20
2023-01-08T01:58:42.494Z,4.70
2023-01-08T01:58:53.537Z,4.60
2023-01-08T01:59:04.503Z,5.50
2023-01-08T01:59:15.267Z,5.40
2023-01-08T01:59:26.345Z,5.60
2023-01-08T01:59:37.310Z,4.90
2023-01-08T01:59:48.085Z,5.30
2023-01-08T01:59:59.128Z,4.50
2023-01-08T02:00:10.112Z,4.40
2023-01-08T02:00:20.880Z,4.00
2023-01-08T02:00:31.927Z,4.30
2023-01-08T02:00:42.904Z,4.60
2023-01-08T02:00:53.712Z,4.60
2023-01-08T02:01:04.782Z,4.40
2023-01-08T02:01:15.878Z,4.70
2023-01-08T02:01:26.751Z,4.50
2023-01-08T02:01:37.368Z,4.50
2023-01-08T02:01:47.991Z,5.50
2023-01-08T02:01:58.910Z,5.40
2023-01-08T02:02:09.561Z,7.10
2023-01-08T02:02:22.763Z,6.40
2023-01-08T02:02:30.818Z,5.60
2023-01-08T02:02:41.329Z,4.30
2023-01-08T02:02:52.275Z,4.20
2023-01-08T02:03:03.047Z,4.10
2023-01-08T02:03:14.085Z,4.60
2023-01-08T02:03:25.068Z,4.40
2023-01-08T02:03:35.880Z,4.10
2023-01-08T02:03:46.552Z,4.20
2023-01-08T02:03:57.538Z,4.50
2023-01-08T02:04:08.289Z,4.80
2023-01-08T02:04:19.337Z,5.00
2023-01-08T02:04:30.308Z,4.90
2023-01-08T02:04:41.083Z,4.80
2023-01-08T02:04:52.152Z,4.80
2023-01-08T02:05:03.128Z,5.00
2023-01-08T02:05:13.885Z,5.10
2023-01-08T02:05:24.935Z,4.30
2023-01-08T02:05:35.902Z,3.90
2023-01-08T02:05:46.669Z,3.70
2023-01-08T02:05:57.713Z,4.10
2023-01-08T02:06:08.680Z,4.60
2023-01-08T02:06:19.469Z,4.80
2023-01-08T02:06:30.503Z,5.00
2023-01-08T02:06:41.467Z,4.30
2023-01-08T02:06:52.241Z,3.80
2023-01-08T02:07:03.288Z,3.70
2023-01-08T02:07:14.260Z,4.00
2023-01-08T02:07:25.028Z,4.20
2023-01-08T02:07:36.072Z,4.10
2023-01-08T02:07:47.037Z,4.40
2023-01-08T02:07:57.805Z,4.30
2023-01-08T02:08:08.859Z,4.00
2023-01-08T02:08:19.818Z,5.90
2023-01-08T02:08:30.597Z,5.80
2023-01-08T02:08:41.643Z,4.40
2023-01-08T02:08:52.615Z,4.60
2023-01-08T02:09:03.398Z,4.70
2023-01-08T02:09:14.437Z,4.90
2023-01-08T02:09:25.401Z,3.80
2023-01-08T02:09:36.156Z,3.60
2023-01-08T02:09:47.221Z,3.50
2023-01-08T02:09:58.187Z,3.40
2023-01-08T02:10:08.953Z,5.70
2023-01-08T02:10:19.995Z,5.90
2023-01-08T02:10:30.970Z,5.30
2023-01-08T02:10:41.767Z,3.50
2023-01-08T02:10:52.820Z,4.50
2023-01-08T02:11:03.781Z,4.50
2023-01-08T02:11:14.542Z,4.60
2023-01-08T02:11:25.589Z,3.50
2023-01-08T02:11:36.560Z,3.70
2023-01-08T02:11:47.327Z,4.10
2023-01-08T02:11:58.375Z,4.20
2023-01-08T02:12:09.333Z,4.50
2023-01-08T02:12:20.114Z,3.90
2023-01-08T02:12:31.145Z,4.10
2023-01-08T02:12:42.111Z,4.20
2023-01-08T02:12:52.873Z,4.40
2023-01-08T02:13:03.919Z,4.40
2023-01-08T02:13:14.904Z,4.20
2023-01-08T02:13:25.665Z,3.90
2023-01-08T02:13:36.729Z,4.00
2023-01-08T02:13:47.690Z,4.20
2023-01-08T02:13:58.457Z,5.40
2023-01-08T02:14:09.508Z,5.60
2023-01-08T02:14:20.484Z,4.70
2023-01-08T02:14:31.235Z,5.50
2023-01-08T02:14:42.285Z,5.90
2023-01-08T02:14:53.252Z,5.70
2023-01-08T02:15:04.035Z,5.10
2023-01-08T02:15:15.082Z,4.10
2023-01-08T02:15:26.044Z,3.60
2023-01-08T02:15:36.819Z,4.10
2023-01-08T02:15:47.881Z,4.50
2023-01-08T02:15:58.836Z,4.50
2023-01-08T02:16:09.627Z,4.00
2023-01-08T02:16:20.715Z,4.60
2023-01-08T02:16:31.749Z,4.30
2023-01-08T02:16:42.557Z,4.80
2023-01-08T02:16:53.165Z,4.00
2023-01-08T02:17:04.296Z,4.10
2023-01-08T02:17:15.091Z,4.30
2023-01-08T02:17:26.137Z,4.10
2023-01-08T02:17:37.143Z,4.40
2023-01-08T02:17:47.939Z,4.10
2023-01-08T02:17:58.976Z,4.00
2023-01-08T02:18:09.967Z,3.90
2023-01-08T02:18:20.762Z,4.30
2023-01-08T02:18:31.797Z,4.40
2023-01-08T02:18:42.764Z,4.40
2023-01-08T02:18:53.644Z,4.40
2023-01-08T02:19:04.106Z,3.90
2023-01-08T02:19:15.088Z,4.20
2023-01-08T02:19:25.843Z,4.10
2023-01-08T02:19:36.893Z,4.00
2023-01-08T02:19:47.871Z,3.70
2023-01-08T02:19:58.651Z,3.60
2023-01-08T02:20:09.689Z,3.60
2023-01-08T02:20:20.676Z,3.50
2023-01-08T02:20:31.426Z,3.30
2023-01-08T02:20:42.494Z,3.50
2023-01-08T02:20:53.450Z,3.70
2023-01-08T02:21:04.214Z,4.00
2023-01-08T02:21:15.258Z,4.20
2023-01-08T02:21:26.242Z,4.70
2023-01-08T02:21:37.011Z,4.20
2023-01-08T02:21:48.049Z,4.40
2023-01-08T02:21:59.030Z,3.50
2023-01-08T02:22:09.808Z,3.40
2023-01-08T02:22:20.861Z,3.20
2023-01-08T02:22:31.825Z,5.00
2023-01-08T02:22:42.585Z,4.70
2023-01-08T02:22:53.641Z,5.50
2023-01-08T02:23:04.603Z,4.10
2023-01-08T02:23:15.363Z,4.40
2023-01-08T02:23:26.425Z,3.40
2023-01-08T02:23:37.380Z,3.40
2023-01-08T02:23:48.149Z,3.10
2023-01-08T02:23:59.190Z,3.10
2023-01-08T02:24:10.158Z,3.10
2023-01-08T02:24:20.924Z,3.40
2023-01-08T02:24:31.966Z,3.30
2023-01-08T02:24:42.935Z,3.40
2023-01-08T02:24:53.701Z,4.20